Bangall, New York
Current Conditions -  °F | °C
As of 12:53 PM on Friday 24 Oct 2014 (Local Time) from KPOU Reporting Station
Broken Clouds Broken Clouds  
Wind Chill: 56°   Ceiling: 3100
Heat Index: 56°   Visibility: 10mi
Dew Point: 43°   Wind: 6mph
Humidity: 62%   Direction: 10°N
Pressure: 29.8"   Gusts: NA
Location:  41.87°N, 73.68°W
Report Text: KPOU 241653Z 01005KT 10SM BKN031 BKN041 BKN110 13/06 A2980 RMK AO2 SLP087 T01330061
Loading
Personal Weather Stations






























Interactive Weather Map
Tropical Storm Tracking
New forecast layout! Learn more

10-Day Weather Forecast

Advertisements
Track Severe Weather on mobile